Terminal Aerodrome Forecast
Issued by NWS

Home | Current Version | Previous Version | Text Only | Print | Product List | Glossary On
Versions: 1 2 3 4 5 6 7 8 9 10 11 12 13 14 15 16 17 18 19 20 21 22 23 24
000
FTUS41 KOKX 271937 AAA
TAFSWF
TAF AMD
KSWF 271937Z 2720/2824 26011KT P6SM VCSH SCT060 BKN100
      TEMPO 2720/2722 SHRA BKN040
     FM272300 29008KT P6SM FEW060 SCT100
     FM280300 VRB04KT P6SM FEW050
     FM281300 29008KT P6SM SKC
     FM281600 29010KT P6SM SCT250
      AMD NOT SKED=

USA.gov is the U.S. government's official web portal to all federal, state and local government web resources and services.